createdAt,value
2023-04-03T00:00:51.207Z,56.56
2023-04-03T00:01:51.205Z,56.88
2023-04-03T00:02:51.222Z,56.88
2023-04-03T00:03:51.303Z,57.04
2023-04-03T00:04:51.164Z,56.56
2023-04-03T00:05:51.168Z,40.28
2023-04-03T00:06:51.143Z,40.61
2023-04-03T00:07:51.133Z,38.99
2023-04-03T00:08:51.126Z,39.80
2023-04-03T00:09:51.122Z,39.80
2023-04-03T00:10:51.136Z,39.16
2023-04-03T00:11:51.099Z,40.12
2023-04-03T00:12:51.085Z,45.12
2023-04-03T00:13:51.081Z,42.54
2023-04-03T00:14:51.077Z,42.54
2023-04-03T00:15:51.096Z,40.93
2023-04-03T00:16:51.105Z,43.02
2023-04-03T00:17:51.094Z,44.31
2023-04-03T00:18:51.054Z,42.54
2023-04-03T00:19:51.045Z,44.31
2023-04-03T00:20:51.062Z,45.60
2023-04-03T00:21:51.034Z,41.25
2023-04-03T00:22:51.021Z,40.61
2023-04-03T00:23:51.007Z,42.06
2023-04-03T00:24:50.999Z,41.89
2023-04-03T00:25:51.017Z,40.93
2023-04-03T00:26:50.985Z,40.93
2023-04-03T00:27:50.994Z,40.77
2023-04-03T00:28:50.991Z,40.93
2023-04-03T00:29:50.957Z,41.25
2023-04-03T00:30:50.998Z,40.93
2023-04-03T00:31:50.947Z,40.44
2023-04-03T00:32:50.995Z,42.38
2023-04-03T00:33:50.957Z,43.34
2023-04-03T00:34:50.980Z,41.41
2023-04-03T00:35:51.027Z,41.73
2023-04-03T00:36:50.988Z,45.60
2023-04-03T00:37:50.905Z,43.34
2023-04-03T00:38:50.906Z,42.22
2023-04-03T00:39:50.888Z,41.89
2023-04-03T00:40:50.954Z,42.54
2023-04-03T00:41:50.876Z,42.86
2023-04-03T00:42:50.863Z,43.51
2023-04-03T00:43:50.868Z,43.34
2023-04-03T00:44:50.853Z,42.38
2023-04-03T00:45:50.938Z,41.41
2023-04-03T00:46:50.840Z,44.96
2023-04-03T00:47:50.914Z,41.73
2023-04-03T00:48:50.818Z,43.02
2023-04-03T00:49:50.815Z,43.34
2023-04-03T00:50:50.836Z,41.73
2023-04-03T00:51:50.812Z,42.22
2023-04-03T00:52:50.793Z,44.15
2023-04-03T00:53:50.789Z,41.41
2023-04-03T00:54:50.798Z,42.54
2023-04-03T00:55:50.816Z,40.93
2023-04-03T00:56:50.842Z,40.61
2023-04-03T00:57:50.754Z,40.61
2023-04-03T00:58:50.748Z,41.41
2023-04-03T00:59:50.743Z,40.77
2023-04-03T01:00:50.733Z,40.28
2023-04-03T01:01:50.821Z,45.12
2023-04-03T01:02:50.739Z,41.41
2023-04-03T01:03:50.751Z,42.06
2023-04-03T01:04:50.704Z,42.06
2023-04-03T01:05:50.710Z,40.93
2023-04-03T01:06:50.738Z,42.38
2023-04-03T01:07:50.685Z,44.63
2023-04-03T01:08:50.733Z,39.48
2023-04-03T01:09:50.666Z,39.96
2023-04-03T01:10:50.666Z,39.96
2023-04-03T01:11:50.685Z,39.80
2023-04-03T01:12:50.651Z,40.61
2023-04-03T01:13:50.646Z,38.99
2023-04-03T01:14:50.638Z,39.64
2023-04-03T01:15:50.643Z,41.25
2023-04-03T01:16:50.672Z,39.96
2023-04-03T01:17:50.673Z,40.61
2023-04-03T01:18:50.620Z,42.70
2023-04-03T01:19:50.596Z,53.82
2023-04-03T01:20:50.582Z,54.30
2023-04-03T01:21:50.615Z,54.30
2023-04-03T01:22:50.574Z,54.79
2023-04-03T01:23:50.572Z,54.79
2023-04-03T01:24:50.568Z,55.59
2023-04-03T01:25:50.578Z,55.43
2023-04-03T01:26:50.566Z,55.91
2023-04-03T01:27:50.537Z,44.15
2023-04-03T01:28:50.538Z,43.83
2023-04-03T01:29:50.520Z,40.28
2023-04-03T01:30:50.523Z,40.93
2023-04-03T01:31:50.631Z,41.41
2023-04-03T01:32:50.530Z,40.44
2023-04-03T01:33:50.493Z,48.82
2023-04-03T01:34:50.488Z,46.89
2023-04-03T01:35:50.483Z,47.05
2023-04-03T01:36:51.517Z,40.44
2023-04-03T01:37:50.477Z,39.96
2023-04-03T01:38:50.463Z,48.82
2023-04-03T01:39:50.451Z,41.73
2023-04-03T01:40:50.445Z,44.63
2023-04-03T01:41:50.465Z,40.93
2023-04-03T01:42:50.430Z,40.28
2023-04-03T01:43:50.437Z,40.61
2023-04-03T01:44:50.451Z,41.73
2023-04-03T01:45:50.507Z,46.73
2023-04-03T01:46:50.426Z,43.83
2023-04-03T01:47:50.400Z,41.57
2023-04-03T01:48:50.388Z,43.67
2023-04-03T01:49:50.378Z,42.06
2023-04-03T01:50:50.369Z,43.99
2023-04-03T01:51:50.383Z,40.93
2023-04-03T01:52:50.366Z,41.09
2023-04-03T01:53:50.349Z,40.93
2023-04-03T01:54:50.349Z,43.83
2023-04-03T01:55:50.326Z,44.47
2023-04-03T01:56:50.396Z,55.27
2023-04-03T01:57:50.317Z,43.67
2023-04-03T01:58:50.306Z,45.60
2023-04-03T01:59:50.299Z,55.43
2023-04-03T02:00:50.322Z,53.66
2023-04-03T02:01:50.308Z,54.14
2023-04-03T02:02:50.288Z,55.75
2023-04-03T02:03:50.371Z,55.91
2023-04-03T02:04:50.257Z,56.88
2023-04-03T02:05:50.252Z,57.52
2023-04-03T02:06:50.277Z,57.04
2023-04-03T02:07:50.237Z,57.52
2023-04-03T02:08:50.229Z,56.56
2023-04-03T02:09:50.223Z,56.56
2023-04-03T02:10:50.218Z,56.24
2023-04-03T02:11:50.241Z,56.88
2023-04-03T02:12:50.195Z,56.24
2023-04-03T02:13:50.183Z,56.07
2023-04-03T02:14:50.179Z,55.43
2023-04-03T02:15:50.169Z,51.40
2023-04-03T02:16:50.211Z,37.87
2023-04-03T02:17:50.161Z,44.15
2023-04-03T02:18:50.143Z,41.57
2023-04-03T02:19:50.134Z,38.83
2023-04-03T02:20:50.133Z,38.67
2023-04-03T02:21:50.153Z,39.96
2023-04-03T02:22:50.115Z,38.67
2023-04-03T02:23:50.155Z,38.83
2023-04-03T02:24:50.119Z,40.77
2023-04-03T02:25:50.121Z,42.54
2023-04-03T02:26:50.111Z,43.67
2023-04-03T02:27:50.076Z,53.66
2023-04-03T02:28:50.083Z,39.16
2023-04-03T02:29:50.070Z,39.48
2023-04-03T02:30:50.063Z,40.12
2023-04-03T02:31:50.086Z,44.79
2023-04-03T02:32:50.110Z,43.34
2023-04-03T02:33:50.035Z,49.15
2023-04-03T02:34:50.027Z,44.15
2023-04-03T02:35:50.038Z,39.80
2023-04-03T02:36:50.007Z,39.64
2023-04-03T02:37:50.033Z,40.61
2023-04-03T02:38:49.995Z,44.15
2023-04-03T02:39:49.986Z,43.99
2023-04-03T02:40:49.987Z,41.73
2023-04-03T02:41:49.978Z,43.99
2023-04-03T02:42:49.998Z,47.53
2023-04-03T02:43:49.959Z,50.60
2023-04-03T02:44:49.947Z,46.25
2023-04-03T02:45:49.955Z,54.30
2023-04-03T02:46:49.935Z,54.46
2023-04-03T02:47:49.982Z,54.95
2023-04-03T02:48:49.920Z,54.62
2023-04-03T02:49:49.913Z,56.56
2023-04-03T02:50:49.899Z,56.24
2023-04-03T02:51:49.909Z,57.04
2023-04-03T02:52:49.916Z,56.72
2023-04-03T02:53:49.879Z,56.56
2023-04-03T02:54:49.862Z,56.72
2023-04-03T02:55:50.897Z,56.56
2023-04-03T02:56:49.876Z,57.20
2023-04-03T02:57:49.876Z,57.04
2023-04-03T02:58:49.843Z,57.52
2023-04-03T02:59:49.843Z,57.04
2023-04-03T03:00:49.832Z,57.69
2023-04-03T03:01:49.883Z,57.36
2023-04-03T03:02:49.875Z,56.88
2023-04-03T03:03:49.800Z,57.20
2023-04-03T03:04:49.839Z,56.88
2023-04-03T03:05:49.790Z,57.20
2023-04-03T03:06:49.788Z,47.86
2023-04-03T03:07:49.795Z,42.54
2023-04-03T03:08:49.763Z,42.38
2023-04-03T03:09:49.766Z,46.89
2023-04-03T03:10:49.746Z,49.79
2023-04-03T03:11:49.746Z,44.15
2023-04-03T03:12:49.752Z,44.47
2023-04-03T03:13:49.745Z,43.51
2023-04-03T03:14:49.715Z,48.18
2023-04-03T03:15:49.739Z,47.21
2023-04-03T03:16:49.703Z,48.18
2023-04-03T03:17:49.847Z,45.76
2023-04-03T03:18:49.691Z,47.86
2023-04-03T03:19:49.675Z,49.31
2023-04-03T03:20:49.672Z,50.92
2023-04-03T03:21:49.662Z,45.60
2023-04-03T03:22:49.681Z,48.02
2023-04-03T03:23:49.654Z,46.41
2023-04-03T03:24:49.647Z,50.76
2023-04-03T03:25:49.629Z,50.27
2023-04-03T03:26:49.631Z,50.27
2023-04-03T03:27:49.657Z,52.85
2023-04-03T03:28:49.634Z,49.47
2023-04-03T03:29:49.604Z,49.31
2023-04-03T03:30:49.604Z,49.63
2023-04-03T03:31:49.757Z,54.46
2023-04-03T03:32:49.630Z,47.53
2023-04-03T03:33:49.572Z,50.92
2023-04-03T03:34:49.564Z,52.53
2023-04-03T03:35:49.602Z,48.02
2023-04-03T03:36:49.553Z,49.95
2023-04-03T03:37:49.582Z,55.11
2023-04-03T03:38:49.532Z,55.91
2023-04-03T03:39:49.528Z,54.46
2023-04-03T03:40:49.539Z,54.30
2023-04-03T03:41:49.516Z,56.56
2023-04-03T03:42:49.538Z,56.07
2023-04-03T03:43:49.497Z,57.04
2023-04-03T03:44:49.494Z,57.69
2023-04-03T03:45:49.479Z,57.85
2023-04-03T03:46:49.491Z,57.20
2023-04-03T03:47:49.549Z,56.88
2023-04-03T03:48:49.468Z,48.82
2023-04-03T03:49:49.453Z,48.82
2023-04-03T03:50:49.455Z,50.27
2023-04-03T03:51:49.436Z,50.11
2023-04-03T03:52:49.461Z,50.27
2023-04-03T03:53:49.421Z,46.25
2023-04-03T03:54:49.427Z,45.44
2023-04-03T03:55:49.409Z,46.08
2023-04-03T03:56:49.416Z,51.08
2023-04-03T03:57:49.421Z,45.60
2023-04-03T03:58:49.384Z,49.31
2023-04-03T03:59:49.405Z,47.86
2023-04-03T04:00:49.395Z,45.44
2023-04-03T04:01:49.404Z,45.76
2023-04-03T04:02:49.410Z,49.95
2023-04-03T04:03:49.497Z,52.05
2023-04-03T04:04:49.345Z,55.75
2023-04-03T04:05:49.333Z,47.86
2023-04-03T04:06:49.331Z,50.11
2023-04-03T04:07:49.343Z,50.76
2023-04-03T04:08:49.308Z,47.86
2023-04-03T04:09:49.302Z,50.43
2023-04-03T04:10:49.297Z,56.56
2023-04-03T04:11:49.302Z,55.91
2023-04-03T04:12:49.342Z,54.62
2023-04-03T04:13:49.273Z,54.79
2023-04-03T04:14:49.266Z,56.24
2023-04-03T04:15:49.254Z,57.04
2023-04-03T04:16:49.273Z,57.20
2023-04-03T04:17:49.327Z,57.04
2023-04-03T04:18:49.229Z,48.82
2023-04-03T04:19:49.228Z,50.92
2023-04-03T04:20:49.230Z,53.98
2023-04-03T04:21:49.210Z,50.92
2023-04-03T04:22:49.236Z,50.92
2023-04-03T04:23:49.208Z,47.86
2023-04-03T04:24:49.184Z,52.21
2023-04-03T04:25:49.183Z,54.62
2023-04-03T04:26:49.174Z,54.95
2023-04-03T04:27:49.190Z,55.27
2023-04-03T04:28:49.174Z,54.95
2023-04-03T04:29:49.164Z,54.30
2023-04-03T04:30:49.235Z,54.14
2023-04-03T04:31:49.136Z,51.88
2023-04-03T04:32:49.170Z,52.53
2023-04-03T04:33:49.118Z,48.18
2023-04-03T04:34:49.118Z,56.88
2023-04-03T04:35:49.161Z,47.37
2023-04-03T04:36:49.188Z,54.30
2023-04-03T04:37:49.112Z,51.88
2023-04-03T04:39:21.868Z,51.88
2023-04-03T04:39:49.076Z,56.07
2023-04-03T04:40:49.073Z,57.36
2023-04-03T04:41:49.062Z,56.24
2023-04-03T04:42:49.089Z,58.01
2023-04-03T04:43:49.059Z,57.69
2023-04-03T04:44:49.061Z,57.85
2023-04-03T04:45:49.064Z,58.49
2023-04-03T04:46:49.035Z,58.65
2023-04-03T04:47:49.087Z,57.04
2023-04-03T04:48:49.009Z,60.10
2023-04-03T04:49:49.001Z,57.52
2023-04-03T04:50:48.999Z,60.10
2023-04-03T04:51:52.301Z,59.30
2023-04-03T04:52:50.021Z,58.49
2023-04-03T04:53:48.969Z,58.49
2023-04-03T04:54:48.968Z,58.49
2023-04-03T04:55:48.948Z,58.33
2023-04-03T04:56:48.980Z,57.85
2023-04-03T04:57:48.961Z,57.85
2023-04-03T04:58:48.933Z,59.14
2023-04-03T04:59:48.936Z,58.33
2023-04-03T05:00:48.919Z,57.20
2023-04-03T05:01:48.979Z,58.17
2023-04-03T05:02:48.962Z,58.01
2023-04-03T05:03:48.887Z,56.72
2023-04-03T05:04:48.934Z,54.62
2023-04-03T05:05:48.870Z,57.85
2023-04-03T05:06:48.860Z,53.98
2023-04-03T05:07:48.878Z,57.20
2023-04-03T05:08:48.854Z,53.98
2023-04-03T05:09:48.863Z,56.07
2023-04-03T05:10:48.838Z,57.20
2023-04-03T05:11:48.827Z,54.79
2023-04-03T05:12:48.850Z,57.69
2023-04-03T05:13:48.813Z,55.75
2023-04-03T05:14:48.856Z,57.04
2023-04-03T05:15:48.921Z,58.65
2023-04-03T05:16:50.270Z,58.17
2023-04-03T05:17:48.830Z,54.95
2023-04-03T05:18:48.800Z,51.72
2023-04-03T05:19:48.777Z,58.17
2023-04-03T05:20:48.772Z,57.69
2023-04-03T05:21:48.762Z,55.27
2023-04-03T05:22:48.769Z,57.04
2023-04-03T05:23:48.736Z,57.36
2023-04-03T05:24:48.753Z,58.33
2023-04-03T05:25:48.722Z,58.17
2023-04-03T05:26:48.719Z,58.49
2023-04-03T05:27:48.776Z,57.52
2023-04-03T05:28:48.697Z,56.56
2023-04-03T05:29:48.694Z,57.52
2023-04-03T05:30:48.682Z,58.49
2023-04-03T05:31:48.683Z,58.97
2023-04-03T05:32:48.706Z,60.26
2023-04-03T05:33:48.698Z,57.36
2023-04-03T05:34:48.651Z,54.79
2023-04-03T05:35:48.689Z,57.52
2023-04-03T05:36:48.636Z,56.40
2023-04-03T05:37:48.682Z,58.01
2023-04-03T05:38:48.625Z,57.20
2023-04-03T05:39:48.627Z,58.33
2023-04-03T05:40:48.646Z,56.07
2023-04-03T05:41:48.603Z,58.49
2023-04-03T05:42:48.644Z,58.17
2023-04-03T05:43:48.578Z,58.65
2023-04-03T05:44:48.586Z,57.20
2023-04-03T05:45:48.586Z,56.56
2023-04-03T05:46:48.574Z,57.20
2023-04-03T05:47:48.666Z,57.04
2023-04-03T05:48:48.543Z,57.04
2023-04-03T05:49:48.531Z,58.17
2023-04-03T05:50:48.526Z,57.52
2023-04-03T05:51:48.663Z,58.33
2023-04-03T05:52:48.515Z,60.91
2023-04-03T05:53:48.530Z,57.69
2023-04-03T05:54:48.502Z,57.52
2023-04-03T05:55:48.493Z,57.85
2023-04-03T05:56:48.521Z,57.04
2023-04-03T05:57:48.474Z,57.20
2023-04-03T05:58:48.507Z,58.97
2023-04-03T05:59:48.453Z,56.40
2023-04-03T06:00:48.466Z,57.04
2023-04-03T06:01:48.442Z,51.88
2023-04-03T06:02:48.537Z,52.21
2023-04-03T06:03:48.593Z,57.04
2023-04-03T06:04:48.491Z,58.33
2023-04-03T06:05:48.438Z,64.29
2023-04-03T06:06:48.435Z,61.55
2023-04-03T06:07:48.414Z,62.68
2023-04-03T06:08:48.412Z,63.16
2023-04-03T06:09:48.386Z,63.16
2023-04-03T06:10:48.420Z,62.20
2023-04-03T06:11:48.368Z,61.07
2023-04-03T06:12:48.500Z,57.69
2023-04-03T06:13:48.376Z,57.36
2023-04-03T06:14:48.367Z,58.33
2023-04-03T06:15:48.333Z,57.69
2023-04-03T06:16:48.372Z,58.01
2023-04-03T06:17:48.383Z,58.01
2023-04-03T06:18:48.340Z,58.65
2023-04-03T06:19:48.301Z,56.72
2023-04-03T06:20:48.298Z,59.30
2023-04-03T06:21:48.305Z,57.52
2023-04-03T06:22:48.330Z,56.40
2023-04-03T06:23:48.811Z,55.11
2023-04-03T06:24:48.262Z,55.27
2023-04-03T06:25:48.259Z,55.59
2023-04-03T06:26:48.249Z,55.91
2023-04-03T06:27:48.270Z,54.14
2023-04-03T06:28:48.258Z,54.79
2023-04-03T06:29:48.223Z,57.69
2023-04-03T06:30:48.249Z,55.43
2023-04-03T06:31:48.214Z,55.59
2023-04-03T06:32:48.925Z,54.46
2023-04-03T06:33:48.223Z,57.20
2023-04-03T06:34:48.188Z,57.20
2023-04-03T06:35:48.244Z,55.91
2023-04-03T06:36:48.192Z,56.72
2023-04-03T06:37:48.167Z,57.69
2023-04-03T06:38:48.180Z,56.24
2023-04-03T06:39:48.162Z,58.01
2023-04-03T06:40:48.157Z,56.07
2023-04-03T06:41:48.197Z,58.01
2023-04-03T06:42:48.123Z,60.42
2023-04-03T06:43:48.156Z,56.56
2023-04-03T06:44:48.115Z,55.91
2023-04-03T06:45:48.105Z,58.33
2023-04-03T06:46:48.103Z,57.52
2023-04-03T06:47:48.125Z,56.72
2023-04-03T06:48:48.117Z,58.65
2023-04-03T06:49:48.091Z,57.52
2023-04-03T06:50:48.079Z,57.04
2023-04-03T06:51:48.125Z,55.75
2023-04-03T06:52:48.067Z,55.75
2023-04-03T06:53:48.114Z,55.11
2023-04-03T06:54:48.037Z,56.88
2023-04-03T06:55:48.026Z,56.40
2023-04-03T06:56:48.035Z,57.36
2023-04-03T06:57:48.015Z,56.56
2023-04-03T06:58:48.061Z,55.43
2023-04-03T06:59:48.011Z,53.33
2023-04-03T07:00:47.991Z,57.52
2023-04-03T07:01:48.029Z,56.24
2023-04-03T07:02:48.195Z,56.56
2023-04-03T07:03:48.001Z,57.04
2023-04-03T07:04:48.068Z,57.20
2023-04-03T07:05:47.949Z,57.04
2023-04-03T07:06:47.948Z,57.69
2023-04-03T07:07:47.942Z,57.69
2023-04-03T07:08:47.938Z,57.36
2023-04-03T07:09:48.936Z,57.85
2023-04-03T07:10:47.907Z,51.88
2023-04-03T07:11:48.015Z,52.85
2023-04-03T07:12:47.899Z,56.88
2023-04-03T07:13:47.936Z,54.30
2023-04-03T07:14:47.877Z,52.69
2023-04-03T07:15:48.911Z,48.98
2023-04-03T07:16:48.192Z,48.98
2023-04-03T07:17:47.927Z,55.75
2023-04-03T07:18:47.880Z,48.02
2023-04-03T07:19:47.849Z,55.43
2023-04-03T07:20:47.889Z,56.56
2023-04-03T07:21:47.828Z,53.01
2023-04-03T07:22:47.817Z,56.40
2023-04-03T07:24:47.819Z,54.46
2023-04-03T07:25:47.821Z,50.92
2023-04-03T07:26:47.789Z,51.24
2023-04-03T07:27:47.812Z,57.04
2023-04-03T07:28:47.831Z,53.17
2023-04-03T07:29:47.773Z,53.66
2023-04-03T07:30:47.759Z,57.36
2023-04-03T07:31:47.767Z,55.59
2023-04-03T07:32:47.789Z,53.17
2023-04-03T07:33:47.803Z,52.69
2023-04-03T07:34:47.739Z,47.37
2023-04-03T07:35:47.734Z,54.79
2023-04-03T07:36:47.726Z,54.95
2023-04-03T07:37:47.715Z,52.69
2023-04-03T07:38:47.749Z,56.88
2023-04-03T07:39:47.701Z,56.88
2023-04-03T07:40:47.683Z,57.85
2023-04-03T07:41:47.696Z,57.52
2023-04-03T07:42:47.707Z,58.33
2023-04-03T07:43:47.699Z,57.04
2023-04-03T07:44:47.653Z,58.65
2023-04-03T07:45:47.676Z,63.65
2023-04-03T07:46:47.650Z,63.49
2023-04-03T07:47:47.664Z,61.71
2023-04-03T07:48:47.678Z,62.52
2023-04-03T07:49:47.615Z,55.75
2023-04-03T07:50:47.619Z,55.91
2023-04-03T07:51:47.622Z,55.27
2023-04-03T07:52:47.620Z,57.04
2023-04-03T07:53:47.623Z,56.07
2023-04-03T07:54:47.588Z,56.40
2023-04-03T07:55:47.597Z,56.56
2023-04-03T07:56:47.581Z,52.85
2023-04-03T07:57:47.563Z,48.98
2023-04-03T07:58:47.580Z,45.12
2023-04-03T07:59:47.617Z,52.69
2023-04-03T08:00:47.551Z,54.46
2023-04-03T08:01:47.533Z,55.75
2023-04-03T08:02:47.583Z,57.85
2023-04-03T08:03:47.700Z,68.48
2023-04-03T08:04:47.632Z,67.35
2023-04-03T08:05:47.499Z,68.64
2023-04-03T08:06:47.489Z,69.61
2023-04-03T08:07:47.492Z,69.13
2023-04-03T08:08:47.531Z,74.28
2023-04-03T08:09:47.487Z,70.42
2023-04-03T08:10:47.462Z,68.96
2023-04-03T08:11:47.523Z,67.84
2023-04-03T08:12:47.446Z,68.48
2023-04-03T08:13:47.497Z,72.51
2023-04-03T08:14:47.431Z,69.93
2023-04-03T08:15:47.441Z,68.00
2023-04-03T08:16:47.514Z,73.15
2023-04-03T08:17:47.488Z,71.38
2023-04-03T08:18:47.459Z,70.90
2023-04-03T08:19:47.396Z,71.70
2023-04-03T08:20:47.383Z,69.45
2023-04-03T08:21:48.384Z,68.80
2023-04-03T08:22:47.382Z,72.19
2023-04-03T08:23:47.388Z,70.90
2023-04-03T08:24:58.443Z,72.35
2023-04-03T08:25:49.343Z,75.25
2023-04-03T08:26:47.352Z,71.22
2023-04-03T08:27:47.340Z,71.22
2023-04-03T08:28:47.348Z,71.06
2023-04-03T08:29:47.313Z,70.58
2023-04-03T08:30:47.314Z,71.70
2023-04-03T08:31:47.327Z,70.42
2023-04-03T08:32:47.310Z,71.38
2023-04-03T08:33:47.289Z,55.43
2023-04-03T08:34:47.294Z,60.10
2023-04-03T08:35:47.297Z,70.58
2023-04-03T08:36:47.283Z,69.45
2023-04-03T08:37:47.244Z,72.35
2023-04-03T08:38:47.243Z,72.51
2023-04-03T08:39:47.265Z,72.35
2023-04-03T08:40:47.230Z,78.79
2023-04-03T08:41:47.230Z,71.70
2023-04-03T08:42:47.214Z,66.71
2023-04-03T08:43:47.209Z,64.78
2023-04-03T08:44:47.228Z,59.14
2023-04-03T08:45:47.198Z,53.01
2023-04-03T08:46:47.181Z,55.75
2023-04-03T08:47:47.287Z,56.24
2023-04-03T08:48:47.167Z,53.33
2023-04-03T08:49:47.208Z,56.40
2023-04-03T08:50:47.166Z,56.72
2023-04-03T08:51:47.167Z,56.72
2023-04-03T08:52:47.136Z,57.52
2023-04-03T08:53:47.121Z,58.17
2023-04-03T08:54:47.145Z,60.10
2023-04-03T08:55:47.104Z,61.87
2023-04-03T08:56:48.103Z,59.30
2023-04-03T08:57:47.142Z,56.72
2023-04-03T08:58:47.099Z,58.65
2023-04-03T08:59:47.116Z,58.01
2023-04-03T09:00:47.153Z,61.55
2023-04-03T09:01:47.137Z,56.72
2023-04-03T09:02:48.282Z,58.17
2023-04-03T09:03:48.252Z,58.33
2023-04-03T09:04:47.061Z,57.69
2023-04-03T09:05:47.037Z,58.65
2023-04-03T09:06:47.038Z,53.98
2023-04-03T09:07:48.636Z,55.11
2023-04-03T09:08:47.010Z,56.07
2023-04-03T09:09:47.064Z,51.40
2023-04-03T09:10:46.995Z,52.85
2023-04-03T09:11:46.989Z,46.08
2023-04-03T09:12:47.022Z,54.95
2023-04-03T09:13:46.972Z,50.76
2023-04-03T09:14:46.992Z,53.01
2023-04-03T09:15:47.013Z,48.66
2023-04-03T09:16:46.984Z,55.27
2023-04-03T09:17:46.985Z,54.30
2023-04-03T09:18:46.951Z,52.69
2023-04-03T09:19:47.142Z,54.95
2023-04-03T09:20:46.918Z,55.43
2023-04-03T09:21:46.910Z,53.01
2023-04-03T09:22:52.348Z,49.63
2023-04-03T09:23:48.899Z,52.37
2023-04-03T09:24:46.906Z,52.53
2023-04-03T09:25:46.888Z,56.24
2023-04-03T09:26:46.890Z,53.17
2023-04-03T09:27:46.855Z,54.79
2023-04-03T09:28:50.557Z,47.21
2023-04-03T09:29:49.414Z,52.21
2023-04-03T09:30:47.004Z,53.82
2023-04-03T09:31:46.855Z,52.05
2023-04-03T09:32:47.727Z,50.92
2023-04-03T09:33:46.811Z,54.30
2023-04-03T09:34:46.847Z,54.30
2023-04-03T09:35:48.970Z,52.85
2023-04-03T09:36:47.793Z,47.70
2023-04-03T09:37:46.781Z,53.82
2023-04-03T09:38:46.782Z,55.27
2023-04-03T09:39:46.832Z,53.01
2023-04-03T09:40:46.803Z,56.88
2023-04-03T09:41:46.762Z,50.27
2023-04-03T09:42:51.893Z,56.56
2023-04-03T09:43:47.754Z,54.46
2023-04-03T09:44:46.777Z,56.40
2023-04-03T09:45:46.760Z,55.91
2023-04-03T09:46:46.748Z,50.43
2023-04-03T09:47:46.752Z,55.27
2023-04-03T09:48:48.161Z,52.05
2023-04-03T09:49:46.725Z,57.20
2023-04-03T09:50:46.682Z,54.46
2023-04-03T09:51:46.754Z,57.20
2023-04-03T09:52:46.706Z,56.88
2023-04-03T09:53:46.666Z,56.56
2023-04-03T09:54:46.685Z,58.97
2023-04-03T09:55:46.687Z,66.87
2023-04-03T09:56:46.645Z,71.70
2023-04-03T09:57:46.646Z,68.96
2023-04-03T09:58:50.257Z,68.80
2023-04-03T09:59:47.665Z,71.06
2023-04-03T10:00:46.636Z,68.96
2023-04-03T10:01:46.609Z,70.09
2023-04-03T10:02:46.646Z,68.64
2023-04-03T10:03:46.585Z,70.74
2023-04-03T10:04:48.957Z,69.93
2023-04-03T10:05:47.579Z,71.87
2023-04-03T10:06:46.595Z,68.80
2023-04-03T10:07:54.792Z,70.42
2023-04-03T10:08:48.544Z,70.58
2023-04-03T10:09:46.566Z,70.42
2023-04-03T10:10:46.566Z,69.77
2023-04-03T10:11:46.537Z,68.96
2023-04-03T10:12:46.536Z,57.69
2023-04-03T10:13:51.227Z,56.24
2023-04-03T10:14:47.540Z,56.24
2023-04-03T10:15:46.501Z,53.17
2023-04-03T10:16:46.579Z,55.75
2023-04-03T10:17:46.536Z,53.01
2023-04-03T10:18:46.481Z,58.49
2023-04-03T10:19:46.495Z,54.95
2023-04-03T10:20:46.461Z,49.15
2023-04-03T10:21:46.485Z,54.95
2023-04-03T10:22:46.468Z,58.17
2023-04-03T10:23:46.544Z,55.11
2023-04-03T10:24:46.451Z,55.91
2023-04-03T10:25:46.457Z,54.46
2023-04-03T10:26:46.437Z,56.40
2023-04-03T10:27:46.406Z,48.82
2023-04-03T10:28:46.400Z,59.14
2023-04-03T10:29:46.436Z,57.04
2023-04-03T10:30:46.460Z,58.65
2023-04-03T10:31:46.482Z,55.91
2023-04-03T10:32:46.556Z,56.88
2023-04-03T10:33:46.390Z,56.40
2023-04-03T10:34:51.672Z,57.36
2023-04-03T10:35:48.390Z,53.82
2023-04-03T10:36:46.411Z,56.07
2023-04-03T10:37:46.364Z,55.91
2023-04-03T10:40:56.834Z,57.36
2023-04-03T10:42:05.580Z,57.52
2023-04-03T10:42:57.792Z,58.97
2023-04-03T10:43:56.791Z,58.33
2023-04-03T10:44:56.777Z,57.85
2023-04-03T10:45:56.872Z,56.07
2023-04-03T10:46:56.772Z,57.20
2023-04-03T10:47:56.816Z,58.65
2023-04-03T10:48:56.753Z,56.07
2023-04-03T10:49:59.920Z,57.20
2023-04-03T10:50:56.761Z,57.85
2023-04-03T10:51:56.728Z,58.01
2023-04-03T10:52:56.755Z,60.26
2023-04-03T10:53:56.721Z,57.85
2023-04-03T10:54:56.713Z,59.46
2023-04-03T10:55:56.822Z,55.75
2023-04-03T10:57:08.639Z,56.56
2023-04-03T10:57:57.754Z,56.24
2023-04-03T10:58:56.675Z,54.79
2023-04-03T10:59:56.676Z,50.92
2023-04-03T11:00:56.684Z,55.27
2023-04-03T11:01:57.947Z,57.20
2023-04-03T11:02:57.984Z,54.14
2023-04-03T11:03:57.946Z,55.59
2023-04-03T11:04:57.771Z,54.79
2023-04-03T11:05:57.785Z,48.82
2023-04-03T11:06:57.753Z,55.27
2023-04-03T11:07:57.790Z,51.40
2023-04-03T11:08:57.764Z,51.72
2023-04-03T11:09:57.769Z,55.75
2023-04-03T11:10:58.836Z,54.46
2023-04-03T11:11:57.733Z,52.37
2023-04-03T11:12:57.705Z,55.59
2023-04-03T11:13:57.697Z,53.17
2023-04-03T11:14:57.701Z,54.14
2023-04-03T11:15:57.761Z,55.43
2023-04-03T11:16:57.707Z,57.69
2023-04-03T11:17:57.701Z,54.79
2023-04-03T11:18:57.664Z,56.88
2023-04-03T11:19:57.670Z,54.95
2023-04-03T11:20:57.667Z,56.56
2023-04-03T11:21:57.667Z,56.40
2023-04-03T11:22:57.637Z,50.92
2023-04-03T11:23:57.641Z,54.14
2023-04-03T11:24:57.619Z,55.59
2023-04-03T11:25:57.664Z,58.65
2023-04-03T11:26:57.703Z,57.04
2023-04-03T11:27:57.618Z,55.59
2023-04-03T11:28:57.583Z,53.98
2023-04-03T11:29:57.680Z,55.75
2023-04-03T11:30:58.257Z,53.98
2023-04-03T11:31:57.602Z,55.43
2023-04-03T11:32:57.647Z,55.27
2023-04-03T11:33:57.586Z,56.72
2023-04-03T11:34:57.573Z,53.33
2023-04-03T11:35:57.634Z,54.30
2023-04-03T11:36:57.578Z,53.98
2023-04-03T11:37:57.580Z,52.05
2023-04-03T11:38:57.503Z,56.56
2023-04-03T11:39:57.515Z,53.82
2023-04-03T11:40:57.512Z,49.79
2023-04-03T11:42:06.602Z,51.88
2023-04-03T11:42:59.549Z,52.37
2023-04-03T11:43:57.463Z,48.66
2023-04-03T11:44:57.460Z,51.24
2023-04-03T11:45:57.485Z,53.50
2023-04-03T11:46:58.166Z,56.24
2023-04-03T11:47:57.555Z,57.36
2023-04-03T11:48:57.458Z,50.43
2023-04-03T11:49:57.423Z,55.59
2023-04-03T11:50:57.416Z,56.56
2023-04-03T11:51:57.445Z,54.95
2023-04-03T11:52:57.399Z,57.20
2023-04-03T11:53:57.389Z,56.24
2023-04-03T11:54:57.469Z,56.72
2023-04-03T11:55:57.437Z,53.17
2023-04-03T11:56:57.396Z,54.30
2023-04-03T11:57:57.357Z,56.24
2023-04-03T11:58:57.426Z,55.11
2023-04-03T11:59:57.338Z,51.08
2023-04-03T12:00:58.354Z,55.59
2023-04-03T12:01:57.348Z,49.31
2023-04-03T12:02:57.584Z,58.65
2023-04-03T12:03:57.337Z,47.86
2023-04-03T12:04:57.297Z,53.50
2023-04-03T12:05:57.289Z,51.40
2023-04-03T12:06:57.313Z,52.69
2023-04-03T12:07:57.273Z,56.07
2023-04-03T12:08:57.262Z,54.14
2023-04-03T12:09:57.255Z,57.69
2023-04-03T12:10:57.286Z,56.07
2023-04-03T12:11:57.237Z,56.88
2023-04-03T12:12:57.236Z,56.07
2023-04-03T12:13:57.227Z,56.07
2023-04-03T12:14:57.309Z,57.52
2023-04-03T12:15:57.266Z,56.56
2023-04-03T12:16:57.329Z,57.04
2023-04-03T12:17:57.251Z,57.36
2023-04-03T12:18:57.205Z,52.21
2023-04-03T12:19:57.203Z,51.08
2023-04-03T12:20:57.205Z,55.27
2023-04-03T12:21:57.191Z,50.92
2023-04-03T12:22:57.160Z,55.91
2023-04-03T12:23:57.152Z,54.30
2023-04-03T12:24:57.138Z,54.30
2023-04-03T12:25:57.142Z,53.66
2023-04-03T12:26:57.155Z,55.27
2023-04-03T12:27:57.124Z,50.92
2023-04-03T12:28:57.117Z,51.24
2023-04-03T12:29:57.125Z,44.79
2023-04-03T12:30:57.184Z,53.17
2023-04-03T12:31:57.120Z,51.24
2023-04-03T12:33:09.653Z,56.24
2023-04-03T12:33:59.112Z,55.27
2023-04-03T12:34:57.082Z,55.43
2023-04-03T12:35:57.101Z,55.11
2023-04-03T12:36:57.078Z,54.79
2023-04-03T12:37:57.050Z,54.62
2023-04-03T12:38:57.223Z,49.15
2023-04-03T12:39:57.046Z,53.01
2023-04-03T12:40:57.055Z,55.59
2023-04-03T12:41:57.038Z,57.69
2023-04-03T12:42:57.004Z,58.17
2023-04-03T12:43:57.000Z,58.17
2023-04-03T12:44:56.997Z,60.91
2023-04-03T12:45:57.055Z,58.81
2023-04-03T12:46:57.126Z,57.04
2023-04-03T12:47:57.008Z,55.75
2023-04-03T12:48:56.979Z,55.75
2023-04-03T12:49:56.970Z,57.04
2023-04-03T12:50:56.957Z,56.56
2023-04-03T12:51:56.984Z,57.69
2023-04-03T12:52:56.988Z,58.97
2023-04-03T12:53:56.927Z,52.37
2023-04-03T12:54:56.931Z,56.07
2023-04-03T12:55:56.926Z,57.69